createdAt,value
2022-09-11T00:05:00.252Z,66629.25
2022-09-11T00:10:07.731Z,66582.38
2022-09-11T00:15:12.300Z,66565.66
2022-09-11T00:20:16.293Z,66520.09
2022-09-11T00:25:21.532Z,66589.91
2022-09-11T00:30:25.341Z,66611.50
2022-09-11T00:35:30.305Z,66567.97
2022-09-11T00:40:35.713Z,66561.44
2022-09-11T00:45:42.126Z,66574.78
2022-09-11T00:50:46.091Z,66554.53
2022-09-11T00:55:54.112Z,66600.13
2022-09-11T01:00:58.845Z,66558.66
2022-09-11T01:06:03.835Z,66530.16
2022-09-11T01:16:49.248Z,66564.09
2022-09-11T01:22:11.649Z,66594.66
2022-09-11T01:27:40.144Z,66620.03
2022-09-11T01:33:07.569Z,66596.38
2022-09-11T01:38:18.649Z,66613.56
2022-09-11T01:43:29.342Z,66599.59
2022-09-11T01:48:39.623Z,66592.53
2022-09-11T01:53:50.370Z,66662.44
2022-09-11T01:59:01.058Z,66560.44
2022-09-11T02:04:10.775Z,66607.56
2022-09-11T02:09:19.704Z,66583.16
2022-09-11T02:14:29.709Z,66581.91
2022-09-11T02:19:34.007Z,66548.59
2022-09-11T02:24:38.156Z,66575.94
2022-09-11T02:29:44.066Z,66611.94
2022-09-11T02:34:49.096Z,66592.06
2022-09-11T02:40:08.814Z,66591.53
2022-09-11T02:45:28.809Z,66580.25
2022-09-11T02:50:42.696Z,66609.88
2022-09-11T02:56:03.256Z,66594.91
2022-09-11T03:01:11.984Z,66564.09
2022-09-11T03:06:19.666Z,66588.31
2022-09-11T03:11:23.761Z,66551.91
2022-09-11T03:16:29.357Z,66523.28
2022-09-11T03:21:35.175Z,66589.38
2022-09-11T03:26:39.286Z,66554.34
2022-09-11T03:31:45.079Z,66554.97
2022-09-11T03:36:49.053Z,66554.00
2022-09-11T03:41:54.335Z,66531.25
2022-09-11T03:47:01.431Z,66516.97
2022-09-11T03:52:05.695Z,66566.72
2022-09-11T03:57:09.787Z,66584.00
2022-09-11T04:02:16.646Z,66540.53
2022-09-11T04:07:21.216Z,66535.44
2022-09-11T04:12:26.266Z,66581.31
2022-09-11T04:17:32.131Z,66548.91
2022-09-11T04:22:36.141Z,66619.03
2022-09-11T04:27:40.326Z,66545.84
2022-09-11T04:32:50.436Z,66530.16
2022-09-11T04:37:54.388Z,66555.53
2022-09-11T04:42:58.653Z,66638.38
2022-09-11T04:48:04.420Z,66599.66
2022-09-11T04:53:08.517Z,66547.59
2022-09-11T04:58:12.351Z,66554.00
2022-09-11T05:03:18.106Z,66602.19
2022-09-11T05:08:25.479Z,66582.91
2022-09-11T05:13:36.044Z,66587.78
2022-09-11T05:18:45.289Z,66545.97
2022-09-11T05:23:50.809Z,66612.56
2022-09-11T05:28:56.627Z,66611.34
2022-09-11T05:34:03.314Z,66624.31
2022-09-11T05:39:10.591Z,66716.78
2022-09-11T05:44:16.000Z,66688.88
2022-09-11T05:49:21.847Z,66717.44
2022-09-11T05:54:26.783Z,66731.84
2022-09-11T05:59:31.552Z,66708.22
2022-09-11T06:04:36.911Z,66722.31
2022-09-11T06:09:40.900Z,66770.13
2022-09-11T06:14:45.042Z,66734.22
2022-09-11T06:19:51.733Z,66718.47
2022-09-11T06:24:55.889Z,66706.56
2022-09-11T06:30:00.376Z,66715.31
2022-09-11T06:35:06.123Z,66708.22
2022-09-11T06:40:13.472Z,66678.19
2022-09-11T06:45:23.705Z,66722.22
2022-09-11T06:50:29.003Z,66704.00
2022-09-11T06:55:43.313Z,66684.63
2022-09-11T07:00:52.007Z,66681.78
2022-09-11T07:05:57.477Z,66706.63
2022-09-11T07:11:05.196Z,66743.81
2022-09-11T07:16:13.519Z,66816.50
2022-09-11T07:21:23.353Z,66751.75
2022-09-11T07:26:32.536Z,66736.69
2022-09-11T07:31:42.824Z,66732.38
2022-09-11T07:36:51.857Z,66640.53
2022-09-11T07:41:57.589Z,66613.72
2022-09-11T07:47:06.712Z,66632.91
2022-09-11T07:52:18.518Z,66633.00
2022-09-11T07:57:28.104Z,66626.03
2022-09-11T08:02:32.641Z,66644.75
2022-09-11T08:07:37.845Z,66658.28
2022-09-11T08:12:43.324Z,66708.22
2022-09-11T08:17:47.331Z,66692.72
2022-09-11T08:22:52.780Z,66683.00
2022-09-11T08:27:56.564Z,66677.66
2022-09-11T08:33:01.829Z,66666.25
2022-09-11T08:38:07.389Z,66695.25
2022-09-11T08:43:22.436Z,66691.09
2022-09-11T08:48:37.210Z,66728.22
2022-09-11T08:53:43.439Z,66780.75
2022-09-11T08:59:04.635Z,66764.22
2022-09-11T09:04:26.250Z,66764.22
2022-09-11T09:09:42.434Z,66768.97
2022-09-11T09:14:55.045Z,66846.97
2022-09-11T09:20:06.937Z,66843.88
2022-09-11T09:25:21.194Z,66865.97
2022-09-11T09:30:27.602Z,66830.59
2022-09-11T09:35:40.587Z,66845.59
2022-09-11T09:40:56.095Z,66826.19
2022-09-11T09:46:11.638Z,66919.31
2022-09-11T09:51:15.919Z,66960.72
2022-09-11T09:56:24.413Z,66846.66
2022-09-11T10:01:46.033Z,66859.91
2022-09-11T10:06:53.152Z,66826.75
2022-09-11T10:12:04.289Z,66843.34
2022-09-11T10:17:20.459Z,66792.28
2022-09-11T10:22:32.788Z,66777.72
2022-09-11T10:27:44.653Z,66739.53
2022-09-11T10:32:49.240Z,66747.59
2022-09-11T10:38:06.615Z,66756.19
2022-09-11T10:43:24.699Z,66830.44
2022-09-11T10:48:28.947Z,66890.06
2022-09-11T10:53:37.576Z,66868.28
2022-09-11T10:58:47.604Z,66855.81
2022-09-11T11:03:52.328Z,66795.50
2022-09-11T11:09:06.530Z,66740.97
2022-09-11T11:14:32.287Z,66736.38
2022-09-11T11:19:56.869Z,66786.28
2022-09-11T11:25:14.593Z,66734.13
2022-09-11T11:30:22.161Z,66860.06
2022-09-11T11:35:33.863Z,66840.13
2022-09-11T11:40:43.684Z,66890.75
2022-09-11T11:45:53.809Z,66926.94
2022-09-11T11:51:03.673Z,67017.88
2022-09-11T11:56:15.898Z,67001.16
2022-09-11T12:01:25.614Z,67037.44
2022-09-11T12:06:30.194Z,67078.44
2022-09-11T12:11:35.033Z,67098.44
2022-09-11T12:16:40.531Z,67045.47
2022-09-11T12:22:06.681Z,67029.91
2022-09-11T12:27:52.340Z,67006.03
2022-09-11T12:33:01.280Z,67089.69
2022-09-11T12:38:22.003Z,67110.66
2022-09-11T12:43:46.579Z,67100.00
2022-09-11T12:49:17.845Z,67002.38
2022-09-11T12:54:24.295Z,67014.31
2022-09-11T12:59:32.704Z,67015.78
2022-09-11T13:04:38.141Z,66983.38
2022-09-11T13:09:48.098Z,66980.28
2022-09-11T13:14:53.374Z,66970.44
2022-09-11T13:20:21.659Z,66963.66
2022-09-11T13:25:28.128Z,66929.63
2022-09-11T13:30:32.899Z,66834.66
2022-09-11T13:35:40.546Z,66655.03
2022-09-11T13:40:49.896Z,66593.13
2022-09-11T13:46:16.971Z,66596.91
2022-09-11T13:51:25.838Z,66599.53
2022-09-11T13:57:05.853Z,66602.34
2022-09-11T14:02:28.783Z,66609.28
2022-09-11T14:07:42.565Z,66671.19
2022-09-11T14:12:53.844Z,66686.81
2022-09-11T14:18:02.021Z,66662.09
2022-09-11T14:23:09.086Z,66675.94
2022-09-11T14:28:36.836Z,66690.56
2022-09-11T14:33:41.291Z,66668.44
2022-09-11T14:38:48.335Z,66681.94
2022-09-11T14:43:52.345Z,66668.97
2022-09-11T14:48:56.926Z,66685.16
2022-09-11T14:54:02.452Z,66676.47
2022-09-11T14:59:06.392Z,66701.88
2022-09-11T15:04:14.371Z,66664.88
2022-09-11T15:09:19.597Z,66688.41
2022-09-11T15:14:52.037Z,66703.88
2022-09-11T15:19:50.007Z,66759.97
2022-09-11T15:24:56.657Z,66781.41
2022-09-11T15:30:00.811Z,66738.84
2022-09-11T15:35:05.588Z,66739.91
2022-09-11T15:40:11.804Z,66717.91
2022-09-11T15:45:15.867Z,66742.69
2022-09-11T15:50:24.693Z,66714.31
2022-09-11T15:55:30.329Z,66756.75
2022-09-11T16:00:35.590Z,66701.31
2022-09-11T16:05:42.237Z,66756.13
2022-09-11T16:10:47.951Z,66723.31
2022-09-11T16:16:02.692Z,66618.50
2022-09-11T16:21:07.765Z,66582.38
2022-09-11T16:26:17.538Z,66545.75
2022-09-11T16:31:21.880Z,66521.72
2022-09-11T16:36:25.965Z,66508.13
2022-09-11T16:41:31.250Z,66520.19
2022-09-11T16:46:35.713Z,66516.19
2022-09-11T16:51:39.875Z,66477.22
2022-09-11T16:56:46.185Z,66485.66
2022-09-11T17:01:52.479Z,66481.97
2022-09-11T17:06:56.762Z,66478.22
2022-09-11T17:12:04.036Z,66535.16
2022-09-11T17:17:07.895Z,66584.38
2022-09-11T17:22:11.816Z,66607.56
2022-09-11T17:27:17.238Z,66513.97
2022-09-11T17:32:28.296Z,66492.66
2022-09-11T17:37:33.466Z,66479.31
2022-09-11T17:42:38.966Z,66509.47
2022-09-11T17:47:43.876Z,66480.44
2022-09-11T17:52:47.768Z,66463.25
2022-09-11T17:57:56.041Z,66500.06
2022-09-11T18:03:00.230Z,66489.50
2022-09-11T18:08:04.381Z,66562.06
2022-09-11T18:13:09.727Z,66540.91
2022-09-11T18:18:14.052Z,66534.63
2022-09-11T18:23:19.647Z,66540.44
2022-09-11T18:28:25.339Z,66469.09
2022-09-11T18:33:29.217Z,66493.25
2022-09-11T18:38:33.428Z,66463.25
2022-09-11T18:43:39.327Z,66436.25
2022-09-11T18:48:44.406Z,66435.19
2022-09-11T18:53:52.615Z,66422.81
2022-09-11T18:59:00.098Z,66426.66
2022-09-11T19:04:08.711Z,66430.97
2022-09-11T19:09:14.815Z,66431.97
2022-09-11T19:14:20.008Z,66429.25
2022-09-11T19:19:23.883Z,66419.69
2022-09-11T19:24:30.117Z,66462.56
2022-09-11T19:29:36.088Z,66418.53
2022-09-11T19:34:46.415Z,66429.25
2022-09-11T19:39:52.025Z,66449.66
2022-09-11T19:44:57.474Z,66421.31
2022-09-11T19:50:01.207Z,66463.19
2022-09-11T19:55:05.538Z,66470.69
2022-09-11T20:00:11.914Z,66426.03
2022-09-11T20:05:16.102Z,66436.84
2022-09-11T20:10:20.125Z,66448.06
2022-09-11T20:15:25.272Z,66443.78
2022-09-11T20:20:29.496Z,66431.88
2022-09-11T20:25:33.495Z,66484.66
2022-09-11T20:30:40.560Z,66438.38
2022-09-11T20:35:44.600Z,66441.69
2022-09-11T20:40:48.449Z,66418.53
2022-09-11T20:45:55.697Z,66449.75
2022-09-11T20:51:02.730Z,66468.94
2022-09-11T20:56:09.259Z,66459.97
2022-09-11T21:01:17.139Z,66473.66
2022-09-11T21:06:25.568Z,66439.63
2022-09-11T21:11:31.422Z,66443.22
2022-09-11T21:16:36.803Z,66477.22
2022-09-11T21:21:40.885Z,66478.75
2022-09-11T21:26:46.078Z,66450.84
2022-09-11T21:31:51.348Z,66433.09
2022-09-11T21:36:55.321Z,66483.59
2022-09-11T21:41:59.361Z,66477.06
2022-09-11T21:47:04.733Z,66444.84
2022-09-11T21:52:08.684Z,66429.44
2022-09-11T21:57:12.391Z,66494.34
2022-09-11T22:02:17.947Z,66477.66
2022-09-11T22:07:23.125Z,66466.94
2022-09-11T22:12:26.846Z,66451.72
2022-09-11T22:17:32.111Z,66446.00
2022-09-11T22:22:37.854Z,66454.59
2022-09-11T22:27:41.482Z,66456.19
2022-09-11T22:32:46.593Z,66462.66
2022-09-11T22:37:50.355Z,66482.59
2022-09-11T22:42:54.267Z,66519.03
2022-09-11T22:47:59.504Z,66470.25
2022-09-11T22:53:03.781Z,66436.25
2022-09-11T22:58:07.491Z,66463.19
2022-09-11T23:03:12.928Z,66495.47
2022-09-11T23:08:16.586Z,66466.94
2022-09-11T23:13:20.268Z,66436.78
2022-09-11T23:18:26.599Z,66455.28
2022-09-11T23:23:30.268Z,66484.66
2022-09-11T23:28:35.096Z,66438.84
2022-09-11T23:33:40.294Z,66543.06
2022-09-11T23:38:45.517Z,66454.50
2022-09-11T23:43:49.571Z,66427.13
2022-09-11T23:48:54.852Z,66474.31
2022-09-11T23:53:58.554Z,66431.44
2022-09-11T23:59:02.426Z,66506.06
